createdAt,value
2019-01-20T00:02:18.906Z,5.40
2019-01-20T00:05:23.568Z,5.22
2019-01-20T00:08:27.240Z,5.40
2019-01-20T00:11:30.992Z,5.33
2019-01-20T00:14:34.654Z,6.15
2019-01-20T00:17:38.165Z,5.70
2019-01-20T00:20:41.736Z,5.83
2019-01-20T00:23:45.343Z,5.58
2019-01-20T00:26:48.885Z,5.33
2019-01-20T00:29:53.587Z,5.37
2019-01-20T00:32:57.129Z,5.42
2019-01-20T00:36:02.820Z,5.60
2019-01-20T00:39:08.637Z,5.50
2019-01-20T00:42:12.303Z,5.47
2019-01-20T00:45:17.000Z,5.53
2019-01-20T00:48:20.590Z,5.50
2019-01-20T00:51:24.568Z,5.55
2019-01-20T00:54:28.122Z,5.47
2019-01-20T00:57:31.747Z,5.40
2019-01-20T01:00:36.574Z,5.87
2019-01-20T01:03:40.254Z,5.53
2019-01-20T01:06:43.945Z,5.30
2019-01-20T01:09:47.668Z,5.95
2019-01-20T01:12:52.415Z,5.87
2019-01-20T01:15:56.108Z,5.22
2019-01-20T01:18:59.912Z,5.03
2019-01-20T01:22:03.510Z,5.45
2019-01-20T01:25:08.954Z,5.80
2019-01-20T01:28:12.553Z,5.72
2019-01-20T01:31:16.288Z,5.60
2019-01-20T01:34:19.905Z,5.72
2019-01-20T01:37:23.536Z,5.62
2019-01-20T01:40:27.062Z,5.80
2019-01-20T01:43:30.689Z,5.62
2019-01-20T01:46:34.301Z,5.37
2019-01-20T01:49:38.956Z,5.50
2019-01-20T01:52:42.537Z,5.58
2019-01-20T01:55:48.203Z,5.70
2019-01-20T01:58:51.793Z,5.75
2019-01-20T02:01:55.650Z,5.90
2019-01-20T02:05:00.328Z,5.53
2019-01-20T02:08:03.915Z,5.90
2019-01-20T02:11:11.685Z,5.87
2019-01-20T02:14:15.243Z,6.12
2019-01-20T02:17:18.913Z,5.25
2019-01-20T02:20:24.097Z,5.53
2019-01-20T02:23:29.684Z,5.62
2019-01-20T02:26:33.178Z,5.90
2019-01-20T02:29:36.831Z,5.77
2019-01-20T02:32:40.396Z,6.10
2019-01-20T02:35:44.138Z,5.83
2019-01-20T02:38:47.738Z,5.70
2019-01-20T02:41:55.200Z,5.60
2019-01-20T02:44:56.637Z,5.67
2019-01-20T02:48:00.165Z,5.85
2019-01-20T02:51:03.831Z,6.08
2019-01-20T02:54:07.427Z,5.60
2019-01-20T02:57:10.940Z,5.28
2019-01-20T03:00:22.217Z,5.67
2019-01-20T03:03:25.834Z,5.25
2019-01-20T03:06:29.327Z,5.60
2019-01-20T03:09:32.936Z,5.58
2019-01-20T03:12:36.502Z,5.62
2019-01-20T03:15:41.138Z,5.50
2019-01-20T03:18:45.575Z,5.85
2019-01-20T03:21:49.129Z,5.85
2019-01-20T03:24:52.818Z,6.00
2019-01-20T03:27:56.512Z,5.40
2019-01-20T03:31:00.236Z,5.80
2019-01-20T03:34:03.952Z,5.80
2019-01-20T03:37:07.588Z,5.90
2019-01-20T03:40:12.803Z,5.50
2019-01-20T03:43:16.280Z,5.73
2019-01-20T03:46:19.947Z,5.90
2019-01-20T03:49:23.511Z,4.90
2019-01-20T03:52:26.994Z,5.80
2019-01-20T03:55:30.652Z,5.60
2019-01-20T03:58:35.223Z,5.92
2019-01-20T04:01:38.872Z,5.70
2019-01-20T04:04:42.472Z,6.47
2019-01-20T04:07:46.171Z,5.62
2019-01-20T04:10:49.790Z,5.67
2019-01-20T04:13:53.437Z,5.47
2019-01-20T04:16:56.970Z,5.43
2019-01-20T04:20:00.548Z,5.30
2019-01-20T04:23:04.671Z,5.50
2019-01-20T04:26:08.324Z,5.75
2019-01-20T04:29:11.922Z,5.45
2019-01-20T04:32:15.587Z,5.67
2019-01-20T04:35:19.215Z,5.90
2019-01-20T04:38:22.840Z,5.43
2019-01-20T04:41:26.594Z,5.73
2019-01-20T04:44:34.290Z,5.70
2019-01-20T04:47:38.869Z,5.35
2019-01-20T04:50:42.554Z,5.70
2019-01-20T04:53:46.374Z,5.80
2019-01-20T04:56:49.839Z,5.77
2019-01-20T04:59:53.447Z,5.90
2019-01-20T05:02:56.923Z,5.80
2019-01-20T05:06:00.785Z,5.87
2019-01-20T05:09:06.896Z,5.70
2019-01-20T05:12:10.469Z,6.30
2019-01-20T05:15:19.158Z,6.10
2019-01-20T05:18:22.772Z,5.80
2019-01-20T05:21:26.388Z,5.90
2019-01-20T05:24:29.924Z,5.70
2019-01-20T05:27:33.467Z,5.85
2019-01-20T05:30:36.956Z,5.58
2019-01-20T05:33:40.519Z,5.83
2019-01-20T05:36:44.019Z,6.13
2019-01-20T05:39:48.555Z,5.90
2019-01-20T05:42:52.062Z,6.00
2019-01-20T05:45:56.583Z,6.17
2019-01-20T05:49:01.151Z,5.97
2019-01-20T05:52:04.723Z,5.67
2019-01-20T05:55:08.798Z,5.23
2019-01-20T05:58:12.368Z,5.80
2019-01-20T06:01:16.925Z,5.80
2019-01-20T06:04:20.434Z,6.10
2019-01-20T06:07:23.948Z,5.70
2019-01-20T06:10:28.485Z,6.40
2019-01-20T06:13:32.004Z,5.90
2019-01-20T06:16:35.695Z,6.10
2019-01-20T06:19:39.144Z,6.05
2019-01-20T06:22:42.674Z,6.47
2019-01-20T06:25:47.253Z,6.00
2019-01-20T06:28:50.853Z,6.70
2019-01-20T06:31:55.430Z,5.67
2019-01-20T06:34:58.939Z,6.43
2019-01-20T06:38:02.430Z,6.10
2019-01-20T06:41:05.944Z,6.40
2019-01-20T06:44:09.405Z,6.33
2019-01-20T06:47:13.974Z,6.23
2019-01-20T06:50:18.795Z,6.07
2019-01-20T06:53:22.286Z,6.20
2019-01-20T06:56:25.783Z,6.47
2019-01-20T06:59:29.297Z,6.23
2019-01-20T07:02:32.938Z,6.53
2019-01-20T07:05:36.510Z,6.40
2019-01-20T07:08:40.022Z,6.70
2019-01-20T07:11:43.632Z,6.80
2019-01-20T07:14:47.127Z,6.33
2019-01-20T07:17:50.588Z,6.27
2019-01-20T07:20:54.120Z,7.22
2019-01-20T07:23:58.648Z,6.53
2019-01-20T07:27:02.153Z,6.27
2019-01-20T07:30:07.985Z,6.85
2019-01-20T07:33:11.511Z,6.55
2019-01-20T07:36:15.030Z,6.63
2019-01-20T07:39:18.643Z,6.83
2019-01-20T07:42:22.273Z,6.83
2019-01-20T07:45:26.868Z,6.80
2019-01-20T07:48:35.495Z,5.90
2019-01-20T07:51:40.003Z,6.70
2019-01-20T07:54:43.722Z,6.43
2019-01-20T07:57:47.248Z,6.63
2019-01-20T08:00:50.867Z,6.77
2019-01-20T08:03:54.591Z,6.70
2019-01-20T08:06:58.087Z,6.62
2019-01-20T08:10:02.898Z,6.60
2019-01-20T08:13:06.576Z,6.40
2019-01-20T08:16:10.195Z,6.53
2019-01-20T08:19:13.688Z,6.50
2019-01-20T08:22:17.369Z,6.80
2019-01-20T08:25:21.037Z,6.72
2019-01-20T08:28:26.715Z,7.00
2019-01-20T08:31:30.481Z,5.87
2019-01-20T08:34:34.190Z,6.43
2019-01-20T08:37:37.913Z,6.30
2019-01-20T08:40:41.466Z,6.03
2019-01-20T08:43:46.210Z,6.60
2019-01-20T08:47:02.038Z,5.70
2019-01-20T08:50:09.984Z,6.00
2019-01-20T08:53:13.605Z,6.13
2019-01-20T08:56:17.373Z,5.73
2019-01-20T08:59:20.886Z,6.00
2019-01-20T09:02:25.077Z,5.50
2019-01-20T09:05:29.601Z,5.83
2019-01-20T09:08:33.079Z,5.80
2019-01-20T09:11:36.695Z,5.95
2019-01-20T09:14:40.337Z,5.40
2019-01-20T09:17:44.155Z,5.40
2019-01-20T09:20:47.741Z,5.17
2019-01-20T09:23:53.594Z,6.13
2019-01-20T09:26:58.825Z,5.67
2019-01-20T09:30:04.479Z,5.57
2019-01-20T09:33:08.198Z,5.97
2019-01-20T09:36:11.881Z,5.57
2019-01-20T09:39:15.538Z,5.70
2019-01-20T09:42:19.268Z,5.45
2019-01-20T09:45:26.855Z,5.90
2019-01-20T09:48:31.196Z,6.00
2019-01-20T09:51:34.919Z,6.23
2019-01-20T09:54:38.563Z,5.58
2019-01-20T09:57:43.273Z,5.60
2019-01-20T10:00:46.762Z,5.37
2019-01-20T10:03:50.326Z,5.60
2019-01-20T10:06:53.926Z,5.90
2019-01-20T10:09:57.487Z,5.77
2019-01-20T10:13:01.979Z,5.83
2019-01-20T10:16:05.592Z,5.83
2019-01-20T10:19:09.236Z,5.85
2019-01-20T10:22:12.928Z,5.83
2019-01-20T10:25:16.620Z,5.63
2019-01-20T10:28:22.981Z,5.87
2019-01-20T10:31:26.524Z,5.50
2019-01-20T10:34:31.811Z,5.93
2019-01-20T10:37:36.189Z,5.47
2019-01-20T10:40:39.690Z,5.22
2019-01-20T10:43:43.247Z,5.63
2019-01-20T10:46:46.873Z,5.50
2019-01-20T10:49:50.633Z,5.37
2019-01-20T10:52:54.204Z,5.60
2019-01-20T10:55:57.839Z,5.28
2019-01-20T10:59:01.387Z,5.63
2019-01-20T11:02:05.180Z,5.83
2019-01-20T11:05:08.721Z,5.60
2019-01-20T11:08:12.121Z,5.70
2019-01-20T11:11:15.703Z,5.43
2019-01-20T11:14:19.178Z,4.97
2019-01-20T11:17:22.652Z,5.33
2019-01-20T11:20:27.199Z,5.03
2019-01-20T11:23:30.805Z,5.30
2019-01-20T11:26:34.278Z,5.03
2019-01-20T11:29:37.846Z,5.00
2019-01-20T11:32:42.407Z,5.37
2019-01-20T11:35:46.318Z,5.67
2019-01-20T11:38:49.764Z,5.33
2019-01-20T11:41:53.290Z,5.70
2019-01-20T11:44:56.868Z,4.83
2019-01-20T11:48:00.389Z,5.37
2019-01-20T11:51:03.937Z,4.90
2019-01-20T11:54:07.455Z,5.07
2019-01-20T11:57:10.991Z,5.40
2019-01-20T12:00:17.727Z,5.00
2019-01-20T12:03:21.183Z,4.80
2019-01-20T12:06:24.867Z,5.37
2019-01-20T12:09:28.408Z,5.45
2019-01-20T12:12:32.248Z,5.23
2019-01-20T12:15:35.909Z,5.15
2019-01-20T12:18:39.445Z,4.90
2019-01-20T12:21:43.053Z,4.75
2019-01-20T12:24:46.524Z,4.28
2019-01-20T12:27:49.988Z,5.03
2019-01-20T12:30:53.513Z,4.92
2019-01-20T12:33:57.186Z,4.85
2019-01-20T12:37:00.637Z,4.95
2019-01-20T12:40:05.244Z,5.20
2019-01-20T12:43:08.815Z,5.47
2019-01-20T12:46:12.318Z,4.60
2019-01-20T12:49:16.030Z,4.55
2019-01-20T12:52:19.534Z,4.67
2019-01-20T12:55:23.068Z,4.75
2019-01-20T12:58:26.668Z,4.87
2019-01-20T13:01:30.173Z,4.62
2019-01-20T13:04:33.784Z,4.87
2019-01-20T13:07:37.364Z,4.37
2019-01-20T13:10:40.963Z,4.53
2019-01-20T13:13:44.472Z,5.00
2019-01-20T13:16:48.019Z,5.05
2019-01-20T13:19:51.524Z,4.85
2019-01-20T13:22:55.085Z,4.70
2019-01-20T13:25:58.672Z,4.45
2019-01-20T13:29:02.264Z,4.87
2019-01-20T13:32:05.838Z,4.28
2019-01-20T13:35:09.616Z,4.50
2019-01-20T13:38:15.286Z,4.78
2019-01-20T13:41:22.608Z,4.08
2019-01-20T13:44:26.116Z,4.72
2019-01-20T13:47:29.804Z,4.53
2019-01-20T13:50:33.263Z,4.42
2019-01-20T13:53:38.339Z,4.35
2019-01-20T13:56:42.101Z,4.25
2019-01-20T13:59:45.820Z,4.40
2019-01-20T14:02:49.422Z,4.40
2019-01-20T14:05:53.149Z,4.30
2019-01-20T14:08:56.741Z,4.00
2019-01-20T14:12:00.339Z,4.55
2019-01-20T14:15:04.162Z,4.35
2019-01-20T14:18:08.775Z,4.28
2019-01-20T14:21:12.318Z,3.80
2019-01-20T14:24:15.837Z,3.92
2019-01-20T14:27:20.466Z,3.62
2019-01-20T14:30:26.186Z,4.42
2019-01-20T14:33:29.697Z,3.83
2019-01-20T14:36:33.336Z,3.92
2019-01-20T14:39:36.876Z,3.72
2019-01-20T14:42:40.455Z,3.95
2019-01-20T14:45:44.062Z,4.30
2019-01-20T14:48:48.720Z,4.12
2019-01-20T14:51:52.321Z,3.87
2019-01-20T14:54:55.896Z,4.33
2019-01-20T14:57:59.544Z,4.15
2019-01-20T15:01:03.063Z,4.40
2019-01-20T15:04:06.688Z,4.60
2019-01-20T15:07:10.266Z,4.12
2019-01-20T15:10:13.814Z,3.92
2019-01-20T15:13:17.391Z,4.20
2019-01-20T15:16:20.990Z,4.12
2019-01-20T15:19:24.601Z,3.50
2019-01-20T15:22:28.205Z,3.95
2019-01-20T15:25:31.921Z,3.60
2019-01-20T15:28:35.628Z,3.80
2019-01-20T15:31:39.382Z,3.98
2019-01-20T15:34:42.870Z,3.83
2019-01-20T15:37:46.330Z,3.77
2019-01-20T15:40:49.861Z,3.98
2019-01-20T15:43:53.391Z,3.95
2019-01-20T15:46:56.848Z,3.70
2019-01-20T15:50:00.392Z,3.92
2019-01-20T15:53:04.062Z,3.85
2019-01-20T15:56:07.597Z,3.95
2019-01-20T15:59:11.173Z,3.65
2019-01-20T16:02:14.746Z,3.72
2019-01-20T16:05:18.292Z,3.60
2019-01-20T16:08:21.915Z,3.90
2019-01-20T16:11:25.521Z,3.65
2019-01-20T16:14:29.110Z,3.67
2019-01-20T16:17:32.636Z,3.70
2019-01-20T16:20:36.388Z,3.60
2019-01-20T16:23:39.993Z,3.80
2019-01-20T16:26:43.920Z,3.60
2019-01-20T16:29:47.465Z,3.77
2019-01-20T16:32:51.082Z,3.40
2019-01-20T16:35:54.689Z,3.55
2019-01-20T16:38:59.399Z,3.30
2019-01-20T16:42:02.943Z,3.33
2019-01-20T16:45:07.670Z,3.65
2019-01-20T16:48:12.673Z,3.75
2019-01-20T16:51:16.305Z,3.60
2019-01-20T16:54:19.870Z,3.50
2019-01-20T16:57:26.433Z,3.40
2019-01-20T17:00:31.664Z,3.52
2019-01-20T17:03:35.177Z,3.83
2019-01-20T17:06:39.540Z,3.87
2019-01-20T17:09:43.123Z,3.50
2019-01-20T17:12:46.710Z,3.90
2019-01-20T17:15:50.364Z,3.70
2019-01-20T17:18:54.040Z,3.85
2019-01-20T17:21:57.672Z,4.00
2019-01-20T17:25:01.233Z,3.77
2019-01-20T17:28:05.319Z,3.70
2019-01-20T17:31:11.238Z,3.47
2019-01-20T17:34:15.046Z,3.17
2019-01-20T17:37:18.624Z,3.22
2019-01-20T17:40:24.048Z,3.80
2019-01-20T17:43:27.616Z,3.58
2019-01-20T17:46:31.137Z,3.37
2019-01-20T17:49:34.702Z,3.58
2019-01-20T17:52:38.283Z,3.72
2019-01-20T17:55:41.940Z,3.83
2019-01-20T17:58:45.425Z,3.62
2019-01-20T18:01:49.060Z,4.03
2019-01-20T18:04:52.576Z,3.45
2019-01-20T18:07:56.330Z,3.80
2019-01-20T18:11:00.013Z,3.52
2019-01-20T18:14:03.652Z,3.90
2019-01-20T18:17:07.257Z,3.65
2019-01-20T18:20:14.268Z,3.75
2019-01-20T18:23:18.735Z,3.55
2019-01-20T18:26:22.373Z,3.58
2019-01-20T18:29:25.968Z,3.85
2019-01-20T18:32:30.841Z,3.70
2019-01-20T18:35:34.444Z,3.80
2019-01-20T18:38:41.380Z,4.00
2019-01-20T18:41:44.979Z,4.37
2019-01-20T18:44:48.426Z,3.85
2019-01-20T18:47:51.968Z,4.33
2019-01-20T18:50:55.581Z,3.85
2019-01-20T18:54:00.538Z,3.95
2019-01-20T18:57:04.100Z,3.90
2019-01-20T19:00:11.975Z,3.70
2019-01-20T19:03:15.479Z,3.87
2019-01-20T19:06:18.974Z,4.17
2019-01-20T19:09:22.498Z,3.70
2019-01-20T19:12:26.060Z,4.08
2019-01-20T19:15:29.716Z,3.80
2019-01-20T19:18:34.154Z,4.15
2019-01-20T19:21:37.668Z,4.17
2019-01-20T19:24:41.196Z,3.90
2019-01-20T19:27:44.683Z,3.90
2019-01-20T19:30:48.170Z,3.60
2019-01-20T19:33:51.793Z,4.42
2019-01-20T19:36:55.333Z,4.25
2019-01-20T19:39:58.953Z,4.30
2019-01-20T19:43:02.744Z,3.72
2019-01-20T19:46:06.345Z,4.30
2019-01-20T19:49:09.989Z,4.42
2019-01-20T19:52:13.602Z,4.28
2019-01-20T19:55:22.232Z,4.15
2019-01-20T19:58:25.877Z,3.98
2019-01-20T20:01:30.910Z,4.37
2019-01-20T20:04:34.585Z,3.75
2019-01-20T20:07:38.092Z,3.87
2019-01-20T20:10:41.630Z,4.50
2019-01-20T20:13:45.128Z,3.80
2019-01-20T20:16:48.705Z,4.03
2019-01-20T20:19:52.287Z,4.85
2019-01-20T20:22:55.840Z,4.50
2019-01-20T20:25:59.352Z,4.20
2019-01-20T20:29:03.007Z,4.37
2019-01-20T20:32:06.633Z,4.60
2019-01-20T20:35:10.173Z,4.42
2019-01-20T20:38:13.877Z,4.75
2019-01-20T20:41:17.521Z,4.20
2019-01-20T20:44:20.998Z,4.72
2019-01-20T20:47:24.694Z,4.58
2019-01-20T20:50:28.240Z,4.62
2019-01-20T20:53:31.785Z,4.62
2019-01-20T20:56:35.536Z,4.53
2019-01-20T20:59:39.200Z,4.95
2019-01-20T21:02:42.895Z,4.40
2019-01-20T21:05:46.488Z,4.55
2019-01-20T21:08:49.989Z,5.08
2019-01-20T21:11:53.597Z,4.58
2019-01-20T21:14:57.278Z,4.55
2019-01-20T21:18:01.824Z,4.60
2019-01-20T21:21:05.324Z,5.07
2019-01-20T21:24:09.019Z,4.90
2019-01-20T21:27:12.519Z,4.90
2019-01-20T21:30:18.234Z,5.13
2019-01-20T21:33:21.821Z,5.08
2019-01-20T21:36:25.387Z,5.10
2019-01-20T21:39:28.954Z,4.80
2019-01-20T21:42:32.476Z,4.83
2019-01-20T21:45:36.988Z,4.72
2019-01-20T21:48:40.520Z,5.20
2019-01-20T21:51:44.212Z,5.12
2019-01-20T21:54:47.696Z,5.40
2019-01-20T21:57:51.182Z,5.10
2019-01-20T22:00:54.724Z,5.10
2019-01-20T22:03:58.409Z,5.37
2019-01-20T22:07:01.903Z,5.17
2019-01-20T22:10:07.337Z,5.30
2019-01-20T22:13:10.903Z,5.60
2019-01-20T22:16:14.445Z,5.43
2019-01-20T22:19:17.950Z,5.80
2019-01-20T22:22:21.481Z,4.90
2019-01-20T22:25:24.964Z,5.30
2019-01-20T22:28:29.476Z,5.77
2019-01-20T22:31:34.000Z,5.28
2019-01-20T22:34:37.530Z,5.08
2019-01-20T22:37:41.238Z,5.50
2019-01-20T22:40:44.921Z,6.00
2019-01-20T22:43:48.493Z,5.80
2019-01-20T22:46:52.163Z,5.75
2019-01-20T22:49:55.648Z,6.22
2019-01-20T22:52:59.220Z,6.00
2019-01-20T22:56:02.788Z,6.20
2019-01-20T22:59:06.332Z,6.20
2019-01-20T23:02:09.789Z,5.93
2019-01-20T23:05:13.622Z,6.53
2019-01-20T23:08:17.215Z,6.20
2019-01-20T23:11:20.633Z,6.33
2019-01-20T23:14:24.122Z,6.73
2019-01-20T23:17:27.641Z,6.12
2019-01-20T23:20:31.129Z,6.33
2019-01-20T23:23:34.770Z,6.20
2019-01-20T23:26:38.250Z,6.33
2019-01-20T23:29:41.729Z,6.20
2019-01-20T23:32:45.187Z,6.80
2019-01-20T23:35:49.290Z,6.35
2019-01-20T23:38:52.851Z,6.85
2019-01-20T23:41:56.364Z,6.40
2019-01-20T23:44:59.852Z,6.03
2019-01-20T23:48:03.361Z,6.47
2019-01-20T23:51:06.843Z,5.83
2019-01-20T23:54:10.416Z,6.62
2019-01-20T23:57:14.107Z,6.67
